Jp Tsubaki — JD2817 — position and weather

sailwx.info

Track history (hours):
 
Tides and Currents Weather Stations Pressure Air Temp Water Temp Dewpoint Dewpoint Depression Visibility Wind Speed Wind Dir Waves Ship Positions

Jp Tsubaki

Last reported at 2014-Jul-23 07:28 UTC. Time now 2014-Jul-23 08:11 UTC.
Position N 35°30' E 139°43'.

Length 115 m; draft 6.4 m.

Type: Cargo ship. MMSI: 431000734.

Date/timePositionNaut miles runAvg speedWind from/ knotsBaromVisibWave heightAir tempDewpointWater temp
2014-Jul-23 07:28N 35°30' E 139°43'0 0.0
2014-Jul-23 06:31N 35°30' E 139°43'0 0.0
2014-Jul-23 05:31N 35°30' E 139°43'2 1.9
2014-Jul-23 04:33N 35°28' E 139°42'5 5.0
2014-Jul-23 03:33N 35°24' E 139°39'0 0.0
2014-Jul-23 02:32N 35°24' E 139°39'0 0.0
2014-Jul-23 01:32N 35°24' E 139°39'0 0.0
2014-Jul-23 00:32N 35°24' E 139°39'0 0.0
2014-Jul-22 23:32N 35°24' E 139°39'0 0.0
2014-Jul-22 22:32N 35°24' E 139°39'0 0.0
2014-Jul-22 21:32N 35°24' E 139°39'0 0.0
2014-Jul-22 20:32N 35°24' E 139°39'0 0.0
2014-Jul-22 19:32N 35°24' E 139°39'0 0.0
2014-Jul-22 18:32N 35°24' E 139°39'0 0.0
2014-Jul-22 17:32N 35°24' E 139°39'0 0.0
2014-Jul-22 16:32N 35°24' E 139°39'0 0.0
2014-Jul-22 15:29N 35°24' E 139°39'0 0.0
2014-Jul-22 14:32N 35°24' E 139°39'0 0.2
2014-Jul-22 13:34N 35°24' E 139°39'9 9.2
2014-Jul-22 12:34N 35°30' E 139°48'4 3.7
2014-Jul-22 11:33N 35°30' E 139°43'0 0.0
2014-Jul-22 10:33N 35°30' E 139°43'0 0.0
2014-Jul-22 09:33N 35°30' E 139°43'0 0.0
2014-Jul-22 08:30N 35°30' E 139°43'0 0.0
2014-Jul-22 07:33N 35°30' E 139°43'0 0.0
2014-Jul-22 06:33N 35°30' E 139°43'0 0.0
2014-Jul-22 05:33N 35°30' E 139°43'0 0.0
2014-Jul-22 04:33N 35°30' E 139°43'0 0.0
2014-Jul-22 03:33N 35°30' E 139°43'0 0.0
2014-Jul-22 02:33N 35°30' E 139°43'0 0.0
2014-Jul-22 01:33N 35°30' E 139°43'0 0.0
2014-Jul-22 00:33N 35°30' E 139°43'0 0.0
2014-Jul-21 23:33N 35°30' E 139°43'5 4.6
2014-Jul-21 22:33N 35°25' E 139°44'2 2.0
2014-Jul-21 21:32N 35°23' E 139°45'0 0.1
2014-Jul-21 20:32N 35°23' E 139°45'0 0.0
2014-Jul-21 20:17N 35°23' E 139°45'0 0.0
2014-Jul-21 19:32N 35°23' E 139°45'0 0.1
2014-Jul-21 18:32N 35°23' E 139°45'0 0.0
2014-Jul-21 17:32N 35°23' E 139°45'0 0.0
2014-Jul-21 16:32N 35°23' E 139°45'0 0.0
2014-Jul-21 15:32N 35°23' E 139°45'0 0.0
2014-Jul-21 14:32N 35°23' E 139°45'0 0.0
2014-Jul-21 13:32N 35°23' E 139°45'5 5.1
2014-Jul-21 12:33N 35°24' E 139°39'0 0.0
2014-Jul-21 11:33N 35°24' E 139°39'0 0.0
2014-Jul-21 10:33N 35°24' E 139°39'0 0.0
2014-Jul-21 09:33N 35°24' E 139°39'0 0.0
2014-Jul-21 08:33N 35°24' E 139°39'0 0.0
2014-Jul-21 07:33N 35°24' E 139°39'0 0.2
2014-Jul-21 06:33N 35°24' E 139°39'5 4.9
2014-Jul-21 05:33N 35°23' E 139°44'0 0.0
2014-Jul-21 04:29N 35°23' E 139°44'0 0.0
2014-Jul-21 03:32N 35°23' E 139°44'0 0.0
2014-Jul-21 02:32N 35°23' E 139°44'0 0.1
2014-Jul-21 01:32N 35°23' E 139°45'0 0.0
2014-Jul-21 00:29N 35°23' E 139°45'0 0.0
2014-Jul-20 23:32N 35°23' E 139°45'0 0.1
2014-Jul-20 22:32N 35°23' E 139°44'0 0.0
2014-Jul-20 21:32N 35°23' E 139°44'0 0.1
2014-Jul-20 20:33N 35°23' E 139°44'7 7.0
2014-Jul-20 19:33N 35°30' E 139°44'1 1.2
2014-Jul-20 18:33N 35°30' E 139°43'0 0.0
2014-Jul-20 17:33N 35°30' E 139°43'0 0.0
2014-Jul-20 16:33N 35°30' E 139°43'0 0.0
2014-Jul-20 15:33N 35°30' E 139°43'0 0.0
2014-Jul-20 14:33N 35°30' E 139°43'2 1.6
2014-Jul-20 13:33N 35°29' E 139°42'5 5.2
2014-Jul-20 12:33N 35°24' E 139°39'0 0.0
2014-Jul-20 11:33N 35°24' E 139°39'0 0.0
2014-Jul-20 10:33N 35°24' E 139°39'0 0.0
2014-Jul-20 09:33N 35°24' E 139°39'0 0.0
2014-Jul-20 08:33N 35°24' E 139°39'0 0.0
2014-Jul-20 07:33N 35°24' E 139°39'0 0.2
2014-Jul-20 06:33N 35°24' E 139°38'9 8.8
2014-Jul-20 05:33N 35°29' E 139°47'3 3.5
2014-Jul-20 04:33N 35°30' E 139°43'0 0.0
2014-Jul-20 03:33N 35°30' E 139°43'0 0.0
2014-Jul-20 02:33N 35°30' E 139°43'0 0.0
2014-Jul-20 01:33N 35°30' E 139°43'0 0.0
2014-Jul-20 00:33N 35°30' E 139°43'0 0.0
2014-Jul-19 23:33N 35°30' E 139°43'0 0.0
2014-Jul-19 22:33N 35°30' E 139°43'0 0.0
2014-Jul-19 21:34N 35°30' E 139°43'0 0.0
2014-Jul-19 20:33N 35°30' E 139°43'0 0.0
2014-Jul-19 19:33N 35°30' E 139°43'0 0.0
2014-Jul-19 18:33N 35°30' E 139°43'0 0.0
2014-Jul-19 17:33N 35°30' E 139°43'0 0.0
2014-Jul-19 16:33N 35°30' E 139°43'0 0.0
2014-Jul-19 15:34N 35°30' E 139°43'0 0.0
2014-Jul-19 14:33N 35°30' E 139°43'3 3.3
2014-Jul-19 13:33N 35°26' E 139°43'5 4.6
2014-Jul-19 12:33N 35°24' E 139°39'0 0.0
2014-Jul-19 11:33N 35°24' E 139°39'0 0.0
2014-Jul-19 10:33N 35°24' E 139°39'0 0.0
2014-Jul-19 09:33N 35°24' E 139°39'0 0.0
2014-Jul-19 08:33N 35°24' E 139°39'0 0.0
2014-Jul-19 07:33N 35°24' E 139°39'0 0.0
2014-Jul-19 06:33N 35°24' E 139°39'0 0.0
2014-Jul-19 05:33N 35°24' E 139°39'1 1.5
2014-Jul-19 04:33N 35°24' E 139°40'3 3.1
2014-Jul-19 03:31N 35°23' E 139°44'0 0.0
2014-Jul-19 02:31N 35°23' E 139°44'0 0.0
2014-Jul-19 01:31N 35°23' E 139°44'0 0.0
2014-Jul-19 00:31N 35°23' E 139°44'0 0.1
2014-Jul-18 23:31N 35°23' E 139°44'4 3.8
2014-Jul-18 22:33N 35°24' E 139°40'0 0.1
2014-Jul-18 21:33N 35°24' E 139°40'0 0.0
2014-Jul-18 20:33N 35°24' E 139°40'0 0.0
2014-Jul-18 19:33N 35°24' E 139°40'0 0.0
2014-Jul-18 18:33N 35°24' E 139°40'0 0.0
2014-Jul-18 17:33N 35°24' E 139°40'0 0.0
2014-Jul-18 16:33N 35°24' E 139°40'0 0.0
2014-Jul-18 15:33N 35°24' E 139°40'0 0.0
2014-Jul-18 14:33N 35°24' E 139°40'0 0.0
2014-Jul-18 13:33N 35°24' E 139°40'0 0.2
2014-Jul-18 12:33N 35°24' E 139°40'1 1.0
2014-Jul-18 11:33N 35°24' E 139°39'0 0.0
2014-Jul-18 10:33N 35°24' E 139°39'0 0.0
2014-Jul-18 09:33N 35°24' E 139°39'0 0.0
2014-Jul-18 08:33N 35°24' E 139°39'0 0.0
2014-Jul-18 07:33N 35°24' E 139°39'0 0.0
2014-Jul-18 06:33N 35°24' E 139°39'1 1.2
2014-Jul-18 05:33N 35°24' E 139°40'0 0.0
2014-Jul-18 04:33N 35°24' E 139°40'0 0.0
2014-Jul-18 03:33N 35°24' E 139°40'0 0.0
2014-Jul-18 02:33N 35°24' E 139°40'0 0.0
2014-Jul-18 01:33N 35°24' E 139°40'0 0.0
2014-Jul-18 00:33N 35°24' E 139°40'0 0.0
2014-Jul-17 23:33N 35°24' E 139°40'1 1.2
2014-Jul-17 22:33N 35°24' E 139°39'0 0.0
2014-Jul-17 21:33N 35°24' E 139°39'0 0.0
2014-Jul-17 20:33N 35°24' E 139°39'0 0.0
2014-Jul-17 19:33N 35°24' E 139°39'0 0.0
2014-Jul-17 18:33N 35°24' E 139°39'0 0.0
2014-Jul-17 17:33N 35°24' E 139°39'0 0.0
2014-Jul-17 16:33N 35°24' E 139°39'0 0.0
2014-Jul-17 15:33N 35°24' E 139°39'0 0.0
2014-Jul-17 14:33N 35°24' E 139°39'0 0.0
2014-Jul-17 13:33N 35°24' E 139°39'0 0.0
2014-Jul-17 12:33N 35°24' E 139°39'1 0.8
2014-Jul-17 11:33N 35°24' E 139°39'0 0.5
2014-Jul-17 10:33N 35°24' E 139°40'0 0.0
2014-Jul-17 09:33N 35°24' E 139°40'0 0.0
2014-Jul-17 08:33N 35°24' E 139°40'0 0.0
2014-Jul-17 07:33N 35°24' E 139°40'0 0.0
2014-Jul-17 06:34N 35°24' E 139°40'0 0.0
2014-Jul-17 05:34N 35°24' E 139°40'0 0.0
2014-Jul-17 04:33N 35°24' E 139°40'0 0.2
2014-Jul-17 03:33N 35°24' E 139°40'1 1.0
2014-Jul-17 02:33N 35°24' E 139°39'0 0.0
2014-Jul-17 01:33N 35°24' E 139°39'0 0.0
2014-Jul-17 00:30N 35°24' E 139°39'0 0.0
2014-Jul-16 23:33N 35°24' E 139°39'0 0.0
2014-Jul-16 22:33N 35°24' E 139°39'0 0.0
2014-Jul-16 21:30N 35°24' E 139°39'0 0.0
2014-Jul-16 20:33N 35°24' E 139°39'0 0.0
2014-Jul-16 19:33N 35°24' E 139°39'1 1.1
2014-Jul-16 18:33N 35°24' E 139°40'0 0.2
2014-Jul-16 17:33N 35°24' E 139°40'0 0.0
2014-Jul-16 16:32N 35°24' E 139°40'0 0.0
2014-Jul-16 15:32N 35°24' E 139°40'0 0.0
2014-Jul-16 14:32N 35°24' E 139°40'0 0.0
2014-Jul-16 13:32N 35°24' E 139°40'0 0.0
2014-Jul-16 12:29N 35°24' E 139°40'1 1.3
2014-Jul-16 11:33N 35°24' E 139°39'0 0.0
2014-Jul-16 10:33N 35°24' E 139°39'0 0.0
2014-Jul-16 09:33N 35°24' E 139°39'0 0.0
2014-Jul-16 08:33N 35°24' E 139°39'0 0.0
2014-Jul-16 07:33N 35°24' E 139°39'0 0.0
2014-Jul-16 06:33N 35°24' E 139°39'1 0.8
2014-Jul-16 05:33N 35°24' E 139°39'1 0.5
2014-Jul-16 04:33N 35°24' E 139°40'0 0.0
2014-Jul-16 03:33N 35°24' E 139°40'0 0.0
2014-Jul-16 02:33N 35°24' E 139°40'0 0.0
2014-Jul-16 01:33N 35°24' E 139°40'0 0.0
2014-Jul-16 00:33N 35°24' E 139°40'0 0.0
2014-Jul-15 23:33N 35°24' E 139°40'1 1.2
2014-Jul-15 22:32N 35°24' E 139°39'0 0.0
2014-Jul-15 21:32N 35°24' E 139°39'0 0.0
2014-Jul-15 20:32N 35°24' E 139°39'0 0.0
2014-Jul-15 19:32N 35°24' E 139°39'0 0.0
2014-Jul-15 18:32N 35°24' E 139°39'0 0.0
2014-Jul-15 17:32N 35°24' E 139°39'0 0.0
2014-Jul-15 16:32N 35°24' E 139°39'0 0.0
2014-Jul-15 15:32N 35°24' E 139°39'0 0.0
2014-Jul-15 14:32N 35°24' E 139°39'1 1.1
2014-Jul-15 13:33N 35°23' E 139°39'9 9.3
2014-Jul-15 12:33N 35°30' E 139°48'4 3.8
2014-Jul-15 11:33N 35°30' E 139°43'0 0.0
2014-Jul-15 10:33N 35°30' E 139°43'0 0.0
2014-Jul-15 09:33N 35°30' E 139°43'0 0.0
2014-Jul-15 08:34N 35°30' E 139°43'0 0.0
2014-Jul-15 07:33N 35°30' E 139°43'0 0.0
2014-Jul-15 06:33N 35°30' E 139°43'2 2.0
2014-Jul-15 05:33N 35°28' E 139°42'5 4.8
2014-Jul-15 04:33N 35°24' E 139°39'0 0.0
2014-Jul-15 03:29N 35°24' E 139°39'0 0.0
2014-Jul-15 02:32N 35°24' E 139°39'0 0.1
2014-Jul-15 01:32N 35°24' E 139°38'0 0.1
2014-Jul-15 00:32N 35°24' E 139°39'0 0.0
2014-Jul-14 23:32N 35°24' E 139°39'0 0.0
2014-Jul-14 22:29N 35°24' E 139°39'0 0.0
2014-Jul-14 21:32N 35°24' E 139°39'0 0.0
2014-Jul-14 20:32N 35°24' E 139°39'0 0.0
2014-Jul-14 19:32N 35°24' E 139°39'1 1.0
2014-Jul-14 18:33N 35°24' E 139°40'4 4.1
2014-Jul-14 17:31N 35°22' E 139°45'0 0.0
2014-Jul-14 16:31N 35°22' E 139°45'0 0.0
2014-Jul-14 15:31N 35°22' E 139°45'0 0.0
2014-Jul-14 14:31N 35°22' E 139°45'6 6.0
2014-Jul-14 13:33N 35°28' E 139°47'4 3.8
2014-Jul-14 12:33N 35°30' E 139°43'0 0.0
2014-Jul-14 11:33N 35°30' E 139°43'0 0.0
2014-Jul-14 10:33N 35°30' E 139°43'0 0.0
2014-Jul-14 09:33N 35°30' E 139°43'0 0.0
2014-Jul-14 08:33N 35°30' E 139°43'0 0.0
2014-Jul-14 07:33N 35°30' E 139°43'0 0.0
2014-Jul-14 06:33N 35°30' E 139°43'2 1.6
2014-Jul-14 05:33N 35°29' E 139°42'5 5.2
2014-Jul-14 04:33N 35°24' E 139°39'0 0.0
2014-Jul-14 03:31N 35°24' E 139°39'0 0.0
2014-Jul-14 02:28N 35°24' E 139°39'0 0.0
2014-Jul-14 01:31N 35°24' E 139°39'0 0.0
2014-Jul-14 00:31N 35°24' E 139°39'0 0.0
2014-Jul-13 23:31N 35°24' E 139°39'0 0.0
2014-Jul-13 22:31N 35°24' E 139°39'0 0.0
2014-Jul-13 21:31N 35°24' E 139°39'0 0.0
2014-Jul-13 20:31N 35°24' E 139°39'0 0.0
2014-Jul-13 19:31N 35°24' E 139°39'0 0.0
2014-Jul-13 18:19N 35°24' E 139°39'0 0.0
2014-Jul-13 17:28N 35°24' E 139°39'0 0.0
2014-Jul-13 16:31N 35°24' E 139°39'0 0.0
2014-Jul-13 15:28N 35°24' E 139°39'0 0.0
2014-Jul-13 14:33N 35°24' E 139°39'7 6.8
2014-Jul-13 13:33N 35°27' E 139°46'3 3.3
2014-Jul-13 12:33N 35°30' E 139°43'0 0.0
2014-Jul-13 11:33N 35°30' E 139°43'0 0.0
2014-Jul-13 10:33N 35°30' E 139°43'0 0.0
2014-Jul-13 09:33N 35°30' E 139°43'0 0.0
2014-Jul-13 08:33N 35°30' E 139°43'0 0.0
2014-Jul-13 07:33N 35°30' E 139°43'  
Track history (hours):
 
Tides and Currents Weather Stations Pressure Air Temp Water Temp Dewpoint Dewpoint Depression Visibility Wind Speed Wind Dir Waves Ship Positions

Jp Tsubaki

Last reported at 2014-Jul-23 07:28 UTC. Time now 2014-Jul-23 08:11 UTC.
Position N 35°30' E 139°43'.

Length 115 m; draft 6.4 m.

Type: Cargo ship. MMSI: 431000734.

Date/timePositionNaut miles runAvg speedWind from/ knotsBaromVisibWave heightAir tempDewpointWater temp
2014-Jul-23 07:28N 35°30' E 139°43'0 0.0
2014-Jul-23 06:31N 35°30' E 139°43'0 0.0
2014-Jul-23 05:31N 35°30' E 139°43'2 1.9
2014-Jul-23 04:33N 35°28' E 139°42'5 5.0
2014-Jul-23 03:33N 35°24' E 139°39'0 0.0
2014-Jul-23 02:32N 35°24' E 139°39'0 0.0
2014-Jul-23 01:32N 35°24' E 139°39'0 0.0
2014-Jul-23 00:32N 35°24' E 139°39'0 0.0
2014-Jul-22 23:32N 35°24' E 139°39'0 0.0
2014-Jul-22 22:32N 35°24' E 139°39'0 0.0
2014-Jul-22 21:32N 35°24' E 139°39'0 0.0
2014-Jul-22 20:32N 35°24' E 139°39'0 0.0
2014-Jul-22 19:32N 35°24' E 139°39'0 0.0
2014-Jul-22 18:32N 35°24' E 139°39'0 0.0
2014-Jul-22 17:32N 35°24' E 139°39'0 0.0
2014-Jul-22 16:32N 35°24' E 139°39'0 0.0
2014-Jul-22 15:29N 35°24' E 139°39'0 0.0
2014-Jul-22 14:32N 35°24' E 139°39'0 0.2
2014-Jul-22 13:34N 35°24' E 139°39'9 9.2
2014-Jul-22 12:34N 35°30' E 139°48'4 3.7
2014-Jul-22 11:33N 35°30' E 139°43'0 0.0
2014-Jul-22 10:33N 35°30' E 139°43'0 0.0
2014-Jul-22 09:33N 35°30' E 139°43'0 0.0
2014-Jul-22 08:30N 35°30' E 139°43'0 0.0
2014-Jul-22 07:33N 35°30' E 139°43'0 0.0
2014-Jul-22 06:33N 35°30' E 139°43'0 0.0
2014-Jul-22 05:33N 35°30' E 139°43'0 0.0
2014-Jul-22 04:33N 35°30' E 139°43'0 0.0
2014-Jul-22 03:33N 35°30' E 139°43'0 0.0
2014-Jul-22 02:33N 35°30' E 139°43'0 0.0
2014-Jul-22 01:33N 35°30' E 139°43'0 0.0
2014-Jul-22 00:33N 35°30' E 139°43'0 0.0
2014-Jul-21 23:33N 35°30' E 139°43'5 4.6
2014-Jul-21 22:33N 35°25' E 139°44'2 2.0
2014-Jul-21 21:32N 35°23' E 139°45'0 0.1
2014-Jul-21 20:32N 35°23' E 139°45'0 0.0
2014-Jul-21 20:17N 35°23' E 139°45'0 0.0
2014-Jul-21 19:32N 35°23' E 139°45'0 0.1
2014-Jul-21 18:32N 35°23' E 139°45'0 0.0
2014-Jul-21 17:32N 35°23' E 139°45'0 0.0
2014-Jul-21 16:32N 35°23' E 139°45'0 0.0
2014-Jul-21 15:32N 35°23' E 139°45'0 0.0
2014-Jul-21 14:32N 35°23' E 139°45'0 0.0
2014-Jul-21 13:32N 35°23' E 139°45'5 5.1
2014-Jul-21 12:33N 35°24' E 139°39'0 0.0
2014-Jul-21 11:33N 35°24' E 139°39'0 0.0
2014-Jul-21 10:33N 35°24' E 139°39'0 0.0
2014-Jul-21 09:33N 35°24' E 139°39'0 0.0
2014-Jul-21 08:33N 35°24' E 139°39'0 0.0
2014-Jul-21 07:33N 35°24' E 139°39'0 0.2
2014-Jul-21 06:33N 35°24' E 139°39'5 4.9
2014-Jul-21 05:33N 35°23' E 139°44'0 0.0
2014-Jul-21 04:29N 35°23' E 139°44'0 0.0
2014-Jul-21 03:32N 35°23' E 139°44'0 0.0
2014-Jul-21 02:32N 35°23' E 139°44'0 0.1
2014-Jul-21 01:32N 35°23' E 139°45'0 0.0
2014-Jul-21 00:29N 35°23' E 139°45'0 0.0
2014-Jul-20 23:32N 35°23' E 139°45'0 0.1
2014-Jul-20 22:32N 35°23' E 139°44'0 0.0
2014-Jul-20 21:32N 35°23' E 139°44'0 0.1
2014-Jul-20 20:33N 35°23' E 139°44'7 7.0
2014-Jul-20 19:33N 35°30' E 139°44'1 1.2
2014-Jul-20 18:33N 35°30' E 139°43'0 0.0
2014-Jul-20 17:33N 35°30' E 139°43'0 0.0
2014-Jul-20 16:33N 35°30' E 139°43'0 0.0
2014-Jul-20 15:33N 35°30' E 139°43'0 0.0
2014-Jul-20 14:33N 35°30' E 139°43'2 1.6
2014-Jul-20 13:33N 35°29' E 139°42'5 5.2
2014-Jul-20 12:33N 35°24' E 139°39'0 0.0
2014-Jul-20 11:33N 35°24' E 139°39'0 0.0
2014-Jul-20 10:33N 35°24' E 139°39'0 0.0
2014-Jul-20 09:33N 35°24' E 139°39'0 0.0
2014-Jul-20 08:33N 35°24' E 139°39'0 0.0
2014-Jul-20 07:33N 35°24' E 139°39'0 0.2
2014-Jul-20 06:33N 35°24' E 139°38'9 8.8
2014-Jul-20 05:33N 35°29' E 139°47'3 3.5
2014-Jul-20 04:33N 35°30' E 139°43'0 0.0
2014-Jul-20 03:33N 35°30' E 139°43'0 0.0
2014-Jul-20 02:33N 35°30' E 139°43'0 0.0
2014-Jul-20 01:33N 35°30' E 139°43'0 0.0
2014-Jul-20 00:33N 35°30' E 139°43'0 0.0
2014-Jul-19 23:33N 35°30' E 139°43'0 0.0
2014-Jul-19 22:33N 35°30' E 139°43'0 0.0
2014-Jul-19 21:34N 35°30' E 139°43'0 0.0
2014-Jul-19 20:33N 35°30' E 139°43'0 0.0
2014-Jul-19 19:33N 35°30' E 139°43'0 0.0
2014-Jul-19 18:33N 35°30' E 139°43'0 0.0
2014-Jul-19 17:33N 35°30' E 139°43'0 0.0
2014-Jul-19 16:33N 35°30' E 139°43'0 0.0
2014-Jul-19 15:34N 35°30' E 139°43'0 0.0
2014-Jul-19 14:33N 35°30' E 139°43'3 3.3
2014-Jul-19 13:33N 35°26' E 139°43'5 4.6
2014-Jul-19 12:33N 35°24' E 139°39'0 0.0
2014-Jul-19 11:33N 35°24' E 139°39'0 0.0
2014-Jul-19 10:33N 35°24' E 139°39'0 0.0
2014-Jul-19 09:33N 35°24' E 139°39'0 0.0
2014-Jul-19 08:33N 35°24' E 139°39'0 0.0
2014-Jul-19 07:33N 35°24' E 139°39'0 0.0
2014-Jul-19 06:33N 35°24' E 139°39'0 0.0
2014-Jul-19 05:33N 35°24' E 139°39'1 1.5
2014-Jul-19 04:33N 35°24' E 139°40'3 3.1
2014-Jul-19 03:31N 35°23' E 139°44'0 0.0
2014-Jul-19 02:31N 35°23' E 139°44'0 0.0
2014-Jul-19 01:31N 35°23' E 139°44'0 0.0
2014-Jul-19 00:31N 35°23' E 139°44'0 0.1
2014-Jul-18 23:31N 35°23' E 139°44'4 3.8
2014-Jul-18 22:33N 35°24' E 139°40'0 0.1
2014-Jul-18 21:33N 35°24' E 139°40'0 0.0
2014-Jul-18 20:33N 35°24' E 139°40'0 0.0
2014-Jul-18 19:33N 35°24' E 139°40'0 0.0
2014-Jul-18 18:33N 35°24' E 139°40'0 0.0
2014-Jul-18 17:33N 35°24' E 139°40'0 0.0
2014-Jul-18 16:33N 35°24' E 139°40'0 0.0
2014-Jul-18 15:33N 35°24' E 139°40'0 0.0
2014-Jul-18 14:33N 35°24' E 139°40'0 0.0
2014-Jul-18 13:33N 35°24' E 139°40'0 0.2
2014-Jul-18 12:33N 35°24' E 139°40'1 1.0
2014-Jul-18 11:33N 35°24' E 139°39'0 0.0
2014-Jul-18 10:33N 35°24' E 139°39'0 0.0
2014-Jul-18 09:33N 35°24' E 139°39'0 0.0
2014-Jul-18 08:33N 35°24' E 139°39'0 0.0
2014-Jul-18 07:33N 35°24' E 139°39'0 0.0
2014-Jul-18 06:33N 35°24' E 139°39'1 1.2
2014-Jul-18 05:33N 35°24' E 139°40'0 0.0
2014-Jul-18 04:33N 35°24' E 139°40'0 0.0
2014-Jul-18 03:33N 35°24' E 139°40'0 0.0
2014-Jul-18 02:33N 35°24' E 139°40'0 0.0
2014-Jul-18 01:33N 35°24' E 139°40'0 0.0
2014-Jul-18 00:33N 35°24' E 139°40'0 0.0
2014-Jul-17 23:33N 35°24' E 139°40'1 1.2
2014-Jul-17 22:33N 35°24' E 139°39'0 0.0
2014-Jul-17 21:33N 35°24' E 139°39'0 0.0
2014-Jul-17 20:33N 35°24' E 139°39'0 0.0
2014-Jul-17 19:33N 35°24' E 139°39'0 0.0
2014-Jul-17 18:33N 35°24' E 139°39'0 0.0
2014-Jul-17 17:33N 35°24' E 139°39'0 0.0
2014-Jul-17 16:33N 35°24' E 139°39'0 0.0
2014-Jul-17 15:33N 35°24' E 139°39'0 0.0
2014-Jul-17 14:33N 35°24' E 139°39'0 0.0
2014-Jul-17 13:33N 35°24' E 139°39'0 0.0
2014-Jul-17 12:33N 35°24' E 139°39'1 0.8
2014-Jul-17 11:33N 35°24' E 139°39'0 0.5
2014-Jul-17 10:33N 35°24' E 139°40'0 0.0
2014-Jul-17 09:33N 35°24' E 139°40'0 0.0
2014-Jul-17 08:33N 35°24' E 139°40'0 0.0
2014-Jul-17 07:33N 35°24' E 139°40'0 0.0
2014-Jul-17 06:34N 35°24' E 139°40'0 0.0
2014-Jul-17 05:34N 35°24' E 139°40'0 0.0
2014-Jul-17 04:33N 35°24' E 139°40'0 0.2
2014-Jul-17 03:33N 35°24' E 139°40'1 1.0
2014-Jul-17 02:33N 35°24' E 139°39'0 0.0
2014-Jul-17 01:33N 35°24' E 139°39'0 0.0
2014-Jul-17 00:30N 35°24' E 139°39'0 0.0
2014-Jul-16 23:33N 35°24' E 139°39'0 0.0
2014-Jul-16 22:33N 35°24' E 139°39'0 0.0
2014-Jul-16 21:30N 35°24' E 139°39'0 0.0
2014-Jul-16 20:33N 35°24' E 139°39'0 0.0
2014-Jul-16 19:33N 35°24' E 139°39'1 1.1
2014-Jul-16 18:33N 35°24' E 139°40'0 0.2
2014-Jul-16 17:33N 35°24' E 139°40'0 0.0
2014-Jul-16 16:32N 35°24' E 139°40'0 0.0
2014-Jul-16 15:32N 35°24' E 139°40'0 0.0
2014-Jul-16 14:32N 35°24' E 139°40'0 0.0
2014-Jul-16 13:32N 35°24' E 139°40'0 0.0
2014-Jul-16 12:29N 35°24' E 139°40'1 1.3
2014-Jul-16 11:33N 35°24' E 139°39'0 0.0
2014-Jul-16 10:33N 35°24' E 139°39'0 0.0
2014-Jul-16 09:33N 35°24' E 139°39'0 0.0
2014-Jul-16 08:33N 35°24' E 139°39'0 0.0
2014-Jul-16 07:33N 35°24' E 139°39'0 0.0
2014-Jul-16 06:33N 35°24' E 139°39'1 0.8
2014-Jul-16 05:33N 35°24' E 139°39'1 0.5
2014-Jul-16 04:33N 35°24' E 139°40'0 0.0
2014-Jul-16 03:33N 35°24' E 139°40'0 0.0
2014-Jul-16 02:33N 35°24' E 139°40'0 0.0
2014-Jul-16 01:33N 35°24' E 139°40'0 0.0
2014-Jul-16 00:33N 35°24' E 139°40'0 0.0
2014-Jul-15 23:33N 35°24' E 139°40'1 1.2
2014-Jul-15 22:32N 35°24' E 139°39'0 0.0
2014-Jul-15 21:32N 35°24' E 139°39'0 0.0
2014-Jul-15 20:32N 35°24' E 139°39'0 0.0
2014-Jul-15 19:32N 35°24' E 139°39'0 0.0
2014-Jul-15 18:32N 35°24' E 139°39'0 0.0
2014-Jul-15 17:32N 35°24' E 139°39'0 0.0
2014-Jul-15 16:32N 35°24' E 139°39'0 0.0
2014-Jul-15 15:32N 35°24' E 139°39'0 0.0
2014-Jul-15 14:32N 35°24' E 139°39'1 1.1
2014-Jul-15 13:33N 35°23' E 139°39'9 9.3
2014-Jul-15 12:33N 35°30' E 139°48'4 3.8
2014-Jul-15 11:33N 35°30' E 139°43'0 0.0
2014-Jul-15 10:33N 35°30' E 139°43'0 0.0
2014-Jul-15 09:33N 35°30' E 139°43'0 0.0
2014-Jul-15 08:34N 35°30' E 139°43'0 0.0
2014-Jul-15 07:33N 35°30' E 139°43'0 0.0
2014-Jul-15 06:33N 35°30' E 139°43'2 2.0
2014-Jul-15 05:33N 35°28' E 139°42'5 4.8
2014-Jul-15 04:33N 35°24' E 139°39'0 0.0
2014-Jul-15 03:29N 35°24' E 139°39'0 0.0
2014-Jul-15 02:32N 35°24' E 139°39'0 0.1
2014-Jul-15 01:32N 35°24' E 139°38'0 0.1
2014-Jul-15 00:32N 35°24' E 139°39'0 0.0
2014-Jul-14 23:32N 35°24' E 139°39'0 0.0
2014-Jul-14 22:29N 35°24' E 139°39'0 0.0
2014-Jul-14 21:32N 35°24' E 139°39'0 0.0
2014-Jul-14 20:32N 35°24' E 139°39'0 0.0
2014-Jul-14 19:32N 35°24' E 139°39'1 1.0
2014-Jul-14 18:33N 35°24' E 139°40'4 4.1
2014-Jul-14 17:31N 35°22' E 139°45'0 0.0
2014-Jul-14 16:31N 35°22' E 139°45'0 0.0
2014-Jul-14 15:31N 35°22' E 139°45'0 0.0
2014-Jul-14 14:31N 35°22' E 139°45'6 6.0
2014-Jul-14 13:33N 35°28' E 139°47'4 3.8
2014-Jul-14 12:33N 35°30' E 139°43'0 0.0
2014-Jul-14 11:33N 35°30' E 139°43'0 0.0
2014-Jul-14 10:33N 35°30' E 139°43'0 0.0
2014-Jul-14 09:33N 35°30' E 139°43'0 0.0
2014-Jul-14 08:33N 35°30' E 139°43'0 0.0
2014-Jul-14 07:33N 35°30' E 139°43'0 0.0
2014-Jul-14 06:33N 35°30' E 139°43'2 1.6
2014-Jul-14 05:33N 35°29' E 139°42'5 5.2
2014-Jul-14 04:33N 35°24' E 139°39'0 0.0
2014-Jul-14 03:31N 35°24' E 139°39'0 0.0
2014-Jul-14 02:28N 35°24' E 139°39'0 0.0
2014-Jul-14 01:31N 35°24' E 139°39'0 0.0
2014-Jul-14 00:31N 35°24' E 139°39'0 0.0
2014-Jul-13 23:31N 35°24' E 139°39'0 0.0
2014-Jul-13 22:31N 35°24' E 139°39'0 0.0
2014-Jul-13 21:31N 35°24' E 139°39'0 0.0
2014-Jul-13 20:31N 35°24' E 139°39'0 0.0
2014-Jul-13 19:31N 35°24' E 139°39'0 0.0
2014-Jul-13 18:19N 35°24' E 139°39'0 0.0
2014-Jul-13 17:28N 35°24' E 139°39'0 0.0
2014-Jul-13 16:31N 35°24' E 139°39'0 0.0
2014-Jul-13 15:28N 35°24' E 139°39'0 0.0
2014-Jul-13 14:33N 35°24' E 139°39'7 6.8
2014-Jul-13 13:33N 35°27' E 139°46'3 3.3
2014-Jul-13 12:33N 35°30' E 139°43'0 0.0
2014-Jul-13 11:33N 35°30' E 139°43'0 0.0
2014-Jul-13 10:33N 35°30' E 139°43'0 0.0
2014-Jul-13 09:33N 35°30' E 139°43'0 0.0
2014-Jul-13 08:33N 35°30' E 139°43'0 0.0
2014-Jul-13 07:33N 35°30' E 139°43'  

Dump ship's entire track history